Time;durP1;ratioP1;P1;durP2;ratioP2;P2;SDS_P1;SDS_P2;PMS_P1;PMS_P2;Temp;Humidity;BMP_temperature;BMP_pressure;BME280_temperature;BME280_humidity;BME280_pressure;Samples;Min_cycle;Max_cycle;Signal;HPM_P1;HPM_P2
2023/09/26 00:01:52;;;;;;;;;14.00;11.33;;;;;;;;6245941;22;46049;-70
2023/09/26 00:04:17;;;;;;;;;12.67;12.67;;;;;;;;6246415;22;45146;-69
2023/09/26 00:06:44;;;;;;;;;16.33;13.00;;;;;;;;6246713;22;45376;-70
2023/09/26 00:09:09;;;;;;;;;15.33;12.67;;;;;;;;6246345;22;45308;-70
2023/09/26 00:11:35;;;;;;;;;15.67;11.67;;;;;;;;6246469;22;46541;-70
2023/09/26 00:14:00;;;;;;;;;15.33;14.00;;;;;;;;6246779;22;45228;-70
2023/09/26 00:16:25;;;;;;;;;14.00;12.00;;;;;;;;6246892;22;45225;-70
2023/09/26 00:18:51;;;;;;;;;16.00;13.67;;;;;;;;6246629;22;45284;-71
2023/09/26 00:21:16;;;;;;;;;15.33;13.67;;;;;;;;6246251;22;45303;-70
2023/09/26 00:23:41;;;;;;;;;13.00;13.00;;;;;;;;6246570;22;45198;-70
2023/09/26 00:26:07;;;;;;;;;7.67;7.67;;;;;;;;6246957;22;45185;-70
2023/09/26 00:28:32;;;;;;;;;13.67;12.00;;;;;;;;6245882;22;45330;-70
2023/09/26 00:31:03;;;;;;;;;12.33;11.67;;;;;;;;6246399;22;45214;-70
2023/09/26 00:33:28;;;;;;;;;13.00;12.00;;;;;;;;6244490;22;45225;-70
2023/09/26 00:35:53;;;;;;;;;11.67;11.00;;;;;;;;6246774;22;45169;-70
2023/09/26 00:38:18;;;;;;;;;13.67;12.33;;;;;;;;6246113;22;45546;-69
2023/09/26 00:40:44;;;;;;;;;12.00;12.00;;;;;;;;6246610;22;45158;-69
2023/09/26 00:43:09;;;;;;;;;10.33;10.33;;;;;;;;6246235;22;45331;-70
2023/09/26 00:45:35;;;;;;;;;12.33;11.00;;;;;;;;6246987;22;45637;-70
2023/09/26 00:48:01;;;;;;;;;15.00;11.67;;;;;;;;6245560;22;45414;-70
2023/09/26 00:50:26;;;;;;;;;14.33;11.00;;;;;;;;6243314;22;45357;-70
2023/09/26 00:52:53;;;;;;;;;15.33;13.00;;;;;;;;6246138;22;45320;-70
2023/09/26 00:55:20;;;;;;;;;12.00;11.67;;;;;;;;6219095;22;45309;-70
2023/09/26 00:57:45;;;;;;;;;14.00;13.00;;;;;;;;6245809;22;45458;-70
2023/09/26 01:00:13;;;;;;;;;12.00;11.67;;;;;;;;6246392;22;45905;-70
2023/09/26 01:02:38;;;;;;;;;12.00;9.00;;;;;;;;6245001;22;45224;-70
2023/09/26 01:05:04;;;;;;;;;13.00;11.33;;;;;;;;6246320;22;45146;-70
2023/09/26 01:07:31;;;;;;;;;13.00;11.33;;;;;;;;6245953;22;45320;-70
2023/09/26 01:09:56;;;;;;;;;14.67;11.33;;;;;;;;6246077;22;45316;-69
2023/09/26 01:12:21;;;;;;;;;12.00;12.00;;;;;;;;6245947;22;45236;-70
2023/09/26 01:14:46;;;;;;;;;10.00;10.00;;;;;;;;6247357;22;45169;-70
2023/09/26 01:17:12;;;;;;;;;15.33;12.67;;;;;;;;6246340;22;45256;-69
2023/09/26 01:19:38;;;;;;;;;11.33;11.33;;;;;;;;6246947;22;46923;-70
2023/09/26 01:22:04;;;;;;;;;13.33;13.00;;;;;;;;6247303;22;45292;-70
2023/09/26 01:24:29;;;;;;;;;12.33;12.33;;;;;;;;6247815;22;45213;-70
2023/09/26 01:26:55;;;;;;;;;13.33;13.00;;;;;;;;6247403;22;45180;-70
2023/09/26 01:29:20;;;;;;;;;15.67;13.33;;;;;;;;6244547;22;45252;-70
2023/09/26 01:31:45;;;;;;;;;12.33;12.33;;;;;;;;6247540;22;45158;-70
2023/09/26 01:34:10;;;;;;;;;13.00;12.33;;;;;;;;6247684;22;45253;-70
2023/09/26 01:36:36;;;;;;;;;15.00;10.67;;;;;;;;6247799;22;45141;-70
2023/09/26 01:39:02;;;;;;;;;14.67;8.33;;;;;;;;6247361;22;46014;-70
2023/09/26 01:41:27;;;;;;;;;11.00;11.00;;;;;;;;6247217;22;45286;-70
2023/09/26 01:43:53;;;;;;;;;12.00;11.33;;;;;;;;6247273;22;45181;-70
2023/09/26 01:46:19;;;;;;;;;10.67;10.33;;;;;;;;6219993;22;46016;-69
2023/09/26 01:48:45;;;;;;;;;10.67;10.00;;;;;;;;6246665;22;45948;-69
2023/09/26 01:51:10;;;;;;;;;11.00;10.33;;;;;;;;6246100;22;45364;-70
2023/09/26 01:53:35;;;;;;;;;12.67;10.33;;;;;;;;6247364;22;45270;-70
2023/09/26 01:56:01;;;;;;;;;15.33;12.00;;;;;;;;6247559;22;45205;-69
2023/09/26 01:58:26;;;;;;;;;11.33;10.67;;;;;;;;6247178;22;46386;-70
2023/09/26 02:00:51;;;;;;;;;13.33;11.33;;;;;;;;6247352;22;45281;-70
2023/09/26 02:03:16;;;;;;;;;12.33;11.67;;;;;;;;6245326;22;45221;-69
2023/09/26 02:05:41;;;;;;;;;11.67;11.00;;;;;;;;6247568;22;45241;-69
2023/09/26 02:08:07;;;;;;;;;9.67;9.67;;;;;;;;6245922;22;45170;-70
2023/09/26 02:10:32;;;;;;;;;11.67;10.67;;;;;;;;6247288;22;45272;-69
2023/09/26 02:12:57;;;;;;;;;11.00;9.67;;;;;;;;6246944;22;45281;-70
2023/09/26 02:15:23;;;;;;;;;11.67;10.00;;;;;;;;6247197;22;45348;-70
2023/09/26 02:17:48;;;;;;;;;12.33;9.67;;;;;;;;6246691;22;45278;-70
2023/09/26 02:20:15;;;;;;;;;10.00;10.00;;;;;;;;6247222;22;45319;-70
2023/09/26 02:22:51;;;;;;;;;11.00;11.00;;;;;;;;6246707;22;45218;-70
2023/09/26 02:25:19;;;;;;;;;10.33;9.00;;;;;;;;6246473;22;45249;-70
2023/09/26 02:27:44;;;;;;;;;11.33;8.67;;;;;;;;6246850;22;45862;-70
2023/09/26 02:30:11;;;;;;;;;16.67;11.00;;;;;;;;6246725;22;45300;-70
2023/09/26 02:32:36;;;;;;;;;12.67;9.67;;;;;;;;6247124;22;45247;-70
2023/09/26 02:35:02;;;;;;;;;12.00;9.00;;;;;;;;6247487;22;45160;-70
2023/09/26 02:37:27;;;;;;;;;9.33;9.33;;;;;;;;6247015;22;46872;-70
2023/09/26 02:39:53;;;;;;;;;9.00;9.00;;;;;;;;6247310;22;45236;-70
2023/09/26 02:42:18;;;;;;;;;10.00;9.33;;;;;;;;6247360;22;45221;-69
2023/09/26 02:44:43;;;;;;;;;12.67;11.67;;;;;;;;6247373;22;45464;-69
2023/09/26 02:47:08;;;;;;;;;11.00;9.67;;;;;;;;6246961;22;45715;-70
2023/09/26 02:49:33;;;;;;;;;12.00;10.00;;;;;;;;6247299;22;45237;-70
2023/09/26 02:51:59;;;;;;;;;13.00;13.00;;;;;;;;6247149;22;45265;-70
2023/09/26 02:54:25;;;;;;;;;11.00;11.00;;;;;;;;6246509;22;45518;-70
2023/09/26 02:56:50;;;;;;;;;12.00;10.67;;;;;;;;6247224;22;45209;-70
2023/09/26 02:59:16;;;;;;;;;10.33;9.67;;;;;;;;6247087;22;45400;-70
2023/09/26 03:01:41;;;;;;;;;11.33;9.33;;;;;;;;6246429;22;45204;-69
2023/09/26 03:04:06;;;;;;;;;11.67;9.00;;;;;;;;6246853;22;45246;-69
2023/09/26 03:06:31;;;;;;;;;12.00;11.33;;;;;;;;6247550;22;45297;-69
2023/09/26 03:08:56;;;;;;;;;10.00;9.00;;;;;;;;6218968;22;45308;-70
2023/09/26 03:11:22;;;;;;;;;11.00;10.00;;;;;;;;6247072;22;45264;-70
2023/09/26 03:13:47;;;;;;;;;14.33;10.33;;;;;;;;6246834;22;45462;-70
2023/09/26 03:16:14;;;;;;;;;12.00;10.67;;;;;;;;6246947;22;46604;-70
2023/09/26 03:18:40;;;;;;;;;10.67;9.67;;;;;;;;6246564;22;45277;-70
2023/09/26 03:21:05;;;;;;;;;9.33;9.33;;;;;;;;6247182;22;45209;-70
2023/09/26 03:23:31;;;;;;;;;11.00;11.00;;;;;;;;6219286;22;46142;-70
2023/09/26 03:25:56;;;;;;;;;12.00;12.00;;;;;;;;6247031;22;45891;-69
2023/09/26 03:28:21;;;;;;;;;9.67;9.67;;;;;;;;6246781;22;45380;-70
2023/09/26 03:30:46;;;;;;;;;8.67;8.67;;;;;;;;6247029;22;45268;-70
2023/09/26 03:33:12;;;;;;;;;12.67;10.67;;;;;;;;6246586;22;45260;-70
2023/09/26 03:35:37;;;;;;;;;13.67;10.67;;;;;;;;6247006;22;45491;-69
2023/09/26 03:38:02;;;;;;;;;14.67;10.00;;;;;;;;6246653;22;45322;-70
2023/09/26 03:40:28;;;;;;;;;10.00;8.67;;;;;;;;6247481;22;45246;-70
2023/09/26 03:42:53;;;;;;;;;10.67;10.67;;;;;;;;6245499;22;45320;-70
2023/09/26 03:45:18;;;;;;;;;14.67;10.67;;;;;;;;6244143;22;47846;-70
2023/09/26 03:47:44;;;;;;;;;9.67;9.67;;;;;;;;6246541;22;45291;-70
2023/09/26 03:50:09;;;;;;;;;16.00;15.00;;;;;;;;6219378;22;45320;-69
2023/09/26 03:52:34;;;;;;;;;14.33;12.67;;;;;;;;6246910;22;45652;-70
2023/09/26 03:55:00;;;;;;;;;15.67;11.67;;;;;;;;6247039;22;45388;-70
2023/09/26 03:57:26;;;;;;;;;14.00;12.00;;;;;;;;6245276;22;45171;-70
2023/09/26 03:59:51;;;;;;;;;12.33;10.33;;;;;;;;6244805;22;45207;-69
2023/09/26 04:02:16;;;;;;;;;11.67;10.00;;;;;;;;6246175;22;45140;-70
2023/09/26 04:04:42;;;;;;;;;13.00;9.67;;;;;;;;6247023;22;45269;-69
2023/09/26 04:07:07;;;;;;;;;11.67;10.67;;;;;;;;6245498;22;44628;-70
2023/09/26 04:09:33;;;;;;;;;11.00;11.00;;;;;;;;6246074;22;45225;-70
2023/09/26 04:11:58;;;;;;;;;13.67;10.67;;;;;;;;6244409;22;47336;-69
2023/09/26 04:14:23;;;;;;;;;10.00;8.00;;;;;;;;6246093;22;46443;-69
2023/09/26 04:16:48;;;;;;;;;16.33;12.67;;;;;;;;6246162;22;45140;-70
2023/09/26 04:19:13;;;;;;;;;11.00;11.00;;;;;;;;6246898;22;45113;-69
2023/09/26 04:21:39;;;;;;;;;12.00;12.00;;;;;;;;6246403;22;45497;-70
2023/09/26 04:24:05;;;;;;;;;12.33;12.00;;;;;;;;6246404;22;45443;-70
2023/09/26 04:26:30;;;;;;;;;16.00;12.33;;;;;;;;6246338;22;45406;-70
2023/09/26 04:28:55;;;;;;;;;12.00;12.00;;;;;;;;6246017;22;45670;-70
2023/09/26 04:31:21;;;;;;;;;13.33;11.33;;;;;;;;6246167;22;45249;-70
2023/09/26 04:33:50;;;;;;;;;15.00;11.33;;;;;;;;6246093;22;45358;-70
2023/09/26 04:36:15;;;;;;;;;10.00;10.00;;;;;;;;6246714;22;45233;-70
2023/09/26 04:38:40;;;;;;;;;12.00;10.67;;;;;;;;6245785;22;45294;-70
2023/09/26 04:41:05;;;;;;;;;13.00;11.00;;;;;;;;6244529;22;45163;-70
2023/09/26 04:43:31;;;;;;;;;9.33;9.33;;;;;;;;6246164;22;45177;-70
2023/09/26 04:45:56;;;;;;;;;13.67;12.00;;;;;;;;6246422;22;45212;-70
2023/09/26 04:48:21;;;;;;;;;12.33;12.33;;;;;;;;6246245;22;45171;-70
2023/09/26 04:50:47;;;;;;;;;13.33;10.67;;;;;;;;6245682;22;46816;-70
2023/09/26 04:53:13;;;;;;;;;11.33;11.33;;;;;;;;6247561;22;45116;-71
2023/09/26 04:55:38;;;;;;;;;11.33;10.33;;;;;;;;6247797;22;45259;-70
2023/09/26 04:58:04;;;;;;;;;13.33;13.33;;;;;;;;6245015;22;45512;-69
2023/09/26 05:00:29;;;;;;;;;11.67;11.67;;;;;;;;6247318;22;45257;-69
2023/09/26 05:02:54;;;;;;;;;16.67;13.33;;;;;;;;6239010;22;47029;-69
2023/09/26 05:05:19;;;;;;;;;12.33;12.33;;;;;;;;6214466;22;45299;-70
2023/09/26 05:07:45;;;;;;;;;12.00;12.00;;;;;;;;6216900;22;45272;-69
2023/09/26 05:10:13;;;;;;;;;12.67;12.67;;;;;;;;6214990;22;45265;-70
2023/09/26 05:12:40;;;;;;;;;12.00;11.00;;;;;;;;6216589;22;45692;-69
2023/09/26 05:15:12;;;;;;;;;11.00;11.00;;;;;;;;6216815;22;45284;-70
2023/09/26 05:17:38;;;;;;;;;8.67;6.33;;;;;;;;6213668;22;45281;-70
2023/09/26 05:20:05;;;;;;;;;14.00;12.33;;;;;;;;6216582;22;45352;-70
2023/09/26 05:22:32;;;;;;;;;10.00;10.00;;;;;;;;6216003;22;45197;-70
2023/09/26 05:24:58;;;;;;;;;11.00;10.67;;;;;;;;6216751;22;45174;-69
2023/09/26 05:27:23;;;;;;;;;12.00;11.33;;;;;;;;6216828;22;44631;-72
2023/09/26 05:29:48;;;;;;;;;3.67;3.67;;;;;;;;6216603;22;45245;-72
2023/09/26 05:32:13;;;;;;;;;11.67;11.00;;;;;;;;6216108;22;46338;-69
2023/09/26 05:34:38;;;;;;;;;12.00;10.67;;;;;;;;6217108;22;45220;-72
2023/09/26 05:37:04;;;;;;;;;13.67;13.33;;;;;;;;6216841;22;45493;-69
2023/09/26 05:39:29;;;;;;;;;12.67;10.00;;;;;;;;6216484;22;45359;-70
2023/09/26 05:41:54;;;;;;;;;13.00;13.00;;;;;;;;6216549;22;45303;-69
2023/09/26 05:44:20;;;;;;;;;15.67;13.00;;;;;;;;6216665;22;45331;-72
2023/09/26 05:46:45;;;;;;;;;16.33;12.67;;;;;;;;6216219;22;45308;-69
2023/09/26 05:49:10;;;;;;;;;13.00;11.67;;;;;;;;6216187;22;45258;-69
2023/09/26 05:51:35;;;;;;;;;14.33;13.00;;;;;;;;6216987;22;45286;-72
2023/09/26 05:54:00;;;;;;;;;12.33;11.33;;;;;;;;6216318;22;45399;-72
2023/09/26 05:56:27;;;;;;;;;14.67;13.00;;;;;;;;6216941;22;45250;-71
2023/09/26 15:16:14;;;;;;;;;4.20;4.20;;;;;;;;6178638;23;45494;-71
2023/09/26 15:18:39;;;;;;;;;4.00;2.75;;;;;;;;6185081;23;45153;-71
2023/09/26 15:21:04;;;;;;;;;6.00;3.50;;;;;;;;6186008;23;45438;-71
2023/09/26 15:23:29;;;;;;;;;6.00;3.75;;;;;;;;6182372;23;45231;-71
2023/09/26 15:25:54;;;;;;;;;9.50;6.00;;;;;;;;6186136;23;45268;-70
2023/09/26 15:28:19;;;;;;;;;4.00;4.00;;;;;;;;6185927;23;45152;-71
2023/09/26 15:30:45;;;;;;;;;2.00;2.00;;;;;;;;6185693;23;45149;-71
2023/09/26 15:33:10;;;;;;;;;5.25;5.00;;;;;;;;6185177;23;45649;-71
2023/09/26 15:35:41;;;;;;;;;16.50;15.50;;;;;;;;6185818;23;45325;-71
2023/09/26 15:38:08;;;;;;;;;3.00;3.00;;;;;;;;6185986;23;45159;-71
2023/09/26 15:40:33;;;;;;;;;7.80;6.80;;;;;;;;6185726;23;45151;-70
2023/09/26 15:42:58;;;;;;;;;12.50;11.75;;;;;;;;6185633;23;45170;-70
2023/09/26 15:45:23;;;;;;;;;7.00;7.00;;;;;;;;6185265;23;45226;-71
2023/09/26 15:47:49;;;;;;;;;7.75;7.25;;;;;;;;6185538;23;45391;-70
2023/09/26 15:50:14;;;;;;;;;8.75;7.50;;;;;;;;6185464;23;45432;-71
2023/09/26 15:52:40;;;;;;;;;4.00;4.00;;;;;;;;6185764;23;46227;-71
2023/09/26 15:55:06;;;;;;;;;2.50;2.00;;;;;;;;6185876;23;45163;-71
2023/09/26 15:57:32;;;;;;;;;4.20;4.20;;;;;;;;6186348;23;45209;-71
2023/09/26 15:59:57;;;;;;;;;6.50;4.75;;;;;;;;6185019;23;45404;-71
2023/09/26 16:02:23;;;;;;;;;3.50;3.50;;;;;;;;6185761;23;45305;-71
2023/09/26 16:04:48;;;;;;;;;3.75;3.25;;;;;;;;6185574;23;45257;-70
2023/09/26 16:07:14;;;;;;;;;5.00;5.00;;;;;;;;6183723;23;45261;-70
2023/09/26 16:09:39;;;;;;;;;5.00;3.75;;;;;;;;6183249;23;46161;-71
2023/09/26 16:12:06;;;;;;;;;3.75;3.75;;;;;;;;6185559;23;45289;-71
2023/09/26 16:14:31;;;;;;;;;3.00;3.00;;;;;;;;6184725;23;45220;-71
2023/09/26 16:16:56;;;;;;;;;3.25;3.25;;;;;;;;6185753;23;45143;-71
2023/09/26 16:19:21;;;;;;;;;4.25;3.00;;;;;;;;6185157;23;45215;-71
2023/09/26 16:21:46;;;;;;;;;2.25;2.25;;;;;;;;6183409;23;45207;-70
2023/09/26 16:24:12;;;;;;;;;3.25;3.25;;;;;;;;6185205;23;45346;-70
2023/09/26 16:26:37;;;;;;;;;3.50;3.50;;;;;;;;6185987;23;45226;-70
2023/09/26 16:29:02;;;;;;;;;3.25;3.25;;;;;;;;6184801;23;45230;-70
2023/09/26 16:31:27;;;;;;;;;4.00;4.00;;;;;;;;6185443;23;45757;-71
2023/09/26 16:33:53;;;;;;;;;4.00;3.00;;;;;;;;6183569;23;45130;-70
2023/09/26 16:36:18;;;;;;;;;4.00;4.00;;;;;;;;6185243;23;45335;-71
2023/09/26 16:38:44;;;;;;;;;6.50;5.00;;;;;;;;6158000;23;45613;-71
2023/09/26 16:41:09;;;;;;;;;4.00;4.00;;;;;;;;6185146;23;45352;-70
2023/09/26 16:43:34;;;;;;;;;19.75;18.00;;;;;;;;6184528;23;45238;-70
2023/09/26 16:46:00;;;;;;;;;9.50;8.50;;;;;;;;6185091;23;45140;-71
2023/09/26 16:48:25;;;;;;;;;5.75;5.00;;;;;;;;6184571;23;45806;-71
2023/09/26 16:50:50;;;;;;;;;4.00;4.00;;;;;;;;6185267;23;45298;-71
2023/09/26 16:53:15;;;;;;;;;2.75;2.75;;;;;;;;6185168;23;45415;-71
2023/09/26 16:55:41;;;;;;;;;5.75;4.00;;;;;;;;6185612;23;45282;-71
2023/09/26 16:58:06;;;;;;;;;4.00;4.00;;;;;;;;6185177;23;45253;-71
2023/09/26 17:00:32;;;;;;;;;4.75;2.00;;;;;;;;6184299;23;45254;-70
2023/09/26 17:02:57;;;;;;;;;4.50;4.50;;;;;;;;6183579;23;45286;-71
2023/09/26 17:05:22;;;;;;;;;4.75;4.75;;;;;;;;6185035;23;45266;-71
2023/09/26 17:07:48;;;;;;;;;4.25;4.25;;;;;;;;6185416;23;45389;-70
2023/09/26 17:10:13;;;;;;;;;4.00;4.00;;;;;;;;6184719;23;45966;-70
2023/09/26 17:12:38;;;;;;;;;4.75;4.00;;;;;;;;6185338;23;45238;-70
2023/09/26 17:15:03;;;;;;;;;5.00;5.00;;;;;;;;6178875;23;45176;-71
2023/09/26 17:17:30;;;;;;;;;4.25;4.00;;;;;;;;6184936;23;45418;-72
2023/09/26 17:19:55;;;;;;;;;3.25;3.25;;;;;;;;6184670;23;46251;-72
2023/09/26 17:22:20;;;;;;;;;3.50;3.50;;;;;;;;6182751;23;45340;-72
2023/09/26 17:24:45;;;;;;;;;3.00;3.00;;;;;;;;6185069;23;45282;-71
2023/09/26 17:27:10;;;;;;;;;3.50;3.50;;;;;;;;6184966;23;45223;-72
2023/09/26 17:29:36;;;;;;;;;4.00;4.00;;;;;;;;6184036;23;46098;-72
2023/09/26 17:32:01;;;;;;;;;8.75;7.25;;;;;;;;6183130;23;45194;-72
2023/09/26 17:34:26;;;;;;;;;5.50;5.50;;;;;;;;6184746;23;45375;-72
2023/09/26 17:36:51;;;;;;;;;5.00;3.75;;;;;;;;6185018;23;45464;-71
2023/09/26 17:39:17;;;;;;;;;7.25;7.25;;;;;;;;6184436;23;45565;-71
2023/09/26 17:41:42;;;;;;;;;8.25;6.50;;;;;;;;6183096;23;45500;-71
2023/09/26 17:44:08;;;;;;;;;5.75;5.00;;;;;;;;6184309;23;45243;-71
2023/09/26 17:46:34;;;;;;;;;6.00;6.00;;;;;;;;6184849;23;45321;-72
2023/09/26 17:48:59;;;;;;;;;7.25;6.75;;;;;;;;6184536;23;46041;-72
2023/09/26 17:51:24;;;;;;;;;12.25;12.25;;;;;;;;6184908;23;45232;-71
2023/09/26 17:53:49;;;;;;;;;8.50;8.50;;;;;;;;6182600;23;45252;-71
2023/09/26 17:56:15;;;;;;;;;5.25;5.25;;;;;;;;6185464;23;45232;-71
2023/09/26 17:58:40;;;;;;;;;5.50;5.00;;;;;;;;6185718;23;46221;-71
2023/09/26 18:01:06;;;;;;;;;5.25;5.25;;;;;;;;6186450;23;45186;-71
2023/09/26 18:03:34;;;;;;;;;5.25;5.25;;;;;;;;6186157;23;45253;-71
2023/09/26 18:06:00;;;;;;;;;6.00;6.00;;;;;;;;6184985;23;45479;-71
2023/09/26 18:08:25;;;;;;;;;4.25;4.25;;;;;;;;6185957;23;45130;-74
2023/09/26 18:10:50;;;;;;;;;8.25;6.50;;;;;;;;6186633;23;45197;-72
2023/09/26 18:13:16;;;;;;;;;9.00;9.00;;;;;;;;6186393;23;45218;-72
2023/09/26 18:15:42;;;;;;;;;4.00;3.50;;;;;;;;6185497;23;45459;-72
2023/09/26 18:18:07;;;;;;;;;7.75;6.00;;;;;;;;6186133;23;46653;-72
2023/09/26 18:20:32;;;;;;;;;8.25;7.00;;;;;;;;6186035;23;45059;-72
2023/09/26 18:22:58;;;;;;;;;8.75;8.00;;;;;;;;6186784;23;45261;-71
2023/09/26 18:25:23;;;;;;;;;7.00;7.00;;;;;;;;6185993;23;45110;-71
2023/09/26 18:27:48;;;;;;;;;7.25;7.25;;;;;;;;6184303;23;47290;-72
2023/09/26 18:30:14;;;;;;;;;14.00;10.00;;;;;;;;6185351;23;45223;-71
2023/09/26 18:32:39;;;;;;;;;7.67;7.67;;;;;;;;6186323;23;45148;-71
2023/09/26 18:35:07;;;;;;;;;12.00;9.33;;;;;;;;6185819;23;45234;-71
2023/09/26 18:37:33;;;;;;;;;8.00;7.67;;;;;;;;6185826;23;46125;-72
2023/09/26 18:39:58;;;;;;;;;11.33;8.33;;;;;;;;6185731;23;45206;-72
2023/09/26 18:42:24;;;;;;;;;7.33;7.33;;;;;;;;6186663;23;45388;-72
2023/09/26 18:44:49;;;;;;;;;8.00;8.00;;;;;;;;6185714;23;45233;-71
2023/09/26 18:47:14;;;;;;;;;9.33;9.00;;;;;;;;6186227;23;45206;-72
2023/09/26 18:49:40;;;;;;;;;9.67;8.00;;;;;;;;6186146;23;45216;-71
2023/09/26 18:52:05;;;;;;;;;10.00;8.67;;;;;;;;6186611;23;45555;-72
2023/09/26 18:54:30;;;;;;;;;10.00;10.00;;;;;;;;6185779;23;45190;-71
2023/09/26 18:56:57;;;;;;;;;8.33;7.67;;;;;;;;6185622;23;46446;-72
2023/09/26 18:59:22;;;;;;;;;11.33;10.33;;;;;;;;6184219;23;45266;-72
2023/09/26 19:01:47;;;;;;;;;14.00;14.00;;;;;;;;6183676;23;45187;-72
2023/09/26 19:04:13;;;;;;;;;13.00;10.67;;;;;;;;6185934;23;45201;-72
2023/09/26 19:06:38;;;;;;;;;21.67;17.67;;;;;;;;6186006;23;45190;-72
2023/09/26 19:09:03;;;;;;;;;24.33;20.33;;;;;;;;6185459;23;45274;-72
2023/09/26 19:11:28;;;;;;;;;14.67;14.67;;;;;;;;6182959;23;45392;-72
2023/09/26 19:13:54;;;;;;;;;18.33;16.00;;;;;;;;6185274;23;45181;-72
2023/09/26 19:16:19;;;;;;;;;17.33;14.67;;;;;;;;6185198;23;45451;-72
2023/09/26 19:18:44;;;;;;;;;12.33;10.67;;;;;;;;6185860;23;45195;-72
2023/09/26 19:21:09;;;;;;;;;12.33;11.33;;;;;;;;6186340;23;45285;-72
2023/09/26 19:23:35;;;;;;;;;10.00;10.00;;;;;;;;6185670;23;45368;-72
2023/09/26 19:26:04;;;;;;;;;15.67;12.67;;;;;;;;6185556;23;46411;-72
2023/09/26 19:28:29;;;;;;;;;11.67;10.00;;;;;;;;6185355;23;45233;-72
2023/09/26 19:30:54;;;;;;;;;20.67;17.33;;;;;;;;6185728;23;45210;-71
2023/09/26 19:33:20;;;;;;;;;17.33;16.33;;;;;;;;6185614;23;45352;-72
2023/09/26 19:35:45;;;;;;;;;15.67;15.67;;;;;;;;6185769;23;46115;-72
2023/09/26 19:38:11;;;;;;;;;18.67;17.33;;;;;;;;6185445;23;45254;-72
2023/09/26 19:40:36;;;;;;;;;17.00;14.33;;;;;;;;6185939;23;45083;-73
2023/09/26 19:43:02;;;;;;;;;19.67;19.00;;;;;;;;6184379;23;45487;-72
2023/09/26 19:45:27;;;;;;;;;14.33;13.00;;;;;;;;6184838;23;45241;-72
2023/09/26 19:47:53;;;;;;;;;20.00;17.00;;;;;;;;6185980;23;45161;-71
2023/09/26 19:50:18;;;;;;;;;15.33;14.67;;;;;;;;6183918;23;45185;-70
2023/09/26 19:52:43;;;;;;;;;17.67;13.00;;;;;;;;6185852;23;45083;-70
2023/09/26 19:55:09;;;;;;;;;17.00;14.67;;;;;;;;6185419;23;45161;-71
2023/09/26 19:57:35;;;;;;;;;13.67;12.33;;;;;;;;6186160;23;45435;-71
2023/09/26 20:00:00;;;;;;;;;15.33;14.00;;;;;;;;6185528;23;45127;-71
2023/09/26 20:02:25;;;;;;;;;12.67;12.67;;;;;;;;6185491;23;45526;-71
2023/09/26 20:04:50;;;;;;;;;14.67;14.00;;;;;;;;6185016;23;45939;-71
2023/09/26 20:07:15;;;;;;;;;17.00;14.33;;;;;;;;6185786;23;45400;-71
2023/09/26 20:09:41;;;;;;;;;18.00;14.00;;;;;;;;6183536;23;45177;-71
2023/09/26 20:12:06;;;;;;;;;15.00;13.00;;;;;;;;6185506;23;45569;-72
2023/09/26 20:14:31;;;;;;;;;19.00;14.00;;;;;;;;6184796;23;45277;-72
2023/09/26 20:16:56;;;;;;;;;16.67;16.67;;;;;;;;6185622;23;45286;-71
2023/09/26 20:19:22;;;;;;;;;19.00;15.00;;;;;;;;6185255;23;45277;-71
2023/09/26 20:21:47;;;;;;;;;13.67;13.67;;;;;;;;6185595;23;45361;-71
2023/09/26 20:24:12;;;;;;;;;16.00;13.00;;;;;;;;6185033;23;45238;-72
2023/09/26 20:26:37;;;;;;;;;15.00;15.00;;;;;;;;6185701;23;45234;-72
2023/09/26 20:29:02;;;;;;;;;15.00;14.00;;;;;;;;6184858;23;45497;-71
2023/09/26 20:31:27;;;;;;;;;16.00;13.67;;;;;;;;6185114;23;45368;-72
2023/09/26 20:33:53;;;;;;;;;19.00;16.00;;;;;;;;6183022;23;45954;-71
2023/09/26 20:36:18;;;;;;;;;19.00;16.33;;;;;;;;6185397;23;45288;-71
2023/09/26 20:38:43;;;;;;;;;19.00;19.00;;;;;;;;6185473;23;45290;-71
2023/09/26 20:41:08;;;;;;;;;21.00;20.67;;;;;;;;6185513;23;45222;-72
2023/09/26 20:43:34;;;;;;;;;20.00;19.00;;;;;;;;6182584;23;45840;-72
2023/09/26 20:46:00;;;;;;;;;20.33;18.00;;;;;;;;6185409;23;45152;-71
2023/09/26 20:48:25;;;;;;;;;19.00;15.67;;;;;;;;6184758;23;45607;-71
2023/09/26 20:50:50;;;;;;;;;20.33;18.67;;;;;;;;6185396;23;45209;-71
2023/09/26 20:53:16;;;;;;;;;21.67;21.33;;;;;;;;6184919;23;45433;-71
2023/09/26 20:55:41;;;;;;;;;23.67;21.00;;;;;;;;6185123;23;45123;-71
2023/09/26 20:58:06;;;;;;;;;25.00;20.67;;;;;;;;6185304;23;45749;-71
2023/09/26 21:00:31;;;;;;;;;21.67;19.00;;;;;;;;6184547;23;45489;-70
2023/09/26 21:02:57;;;;;;;;;22.00;19.67;;;;;;;;6181808;23;46247;-70
2023/09/26 21:05:22;;;;;;;;;24.33;22.67;;;;;;;;6184858;23;45190;-70
2023/09/26 21:07:47;;;;;;;;;25.67;20.67;;;;;;;;6183400;23;45331;-70
2023/09/26 21:10:14;;;;;;;;;25.00;23.00;;;;;;;;6184782;23;45174;-71
2023/09/26 21:12:40;;;;;;;;;25.33;21.00;;;;;;;;6184941;23;45214;-70
2023/09/26 21:15:05;;;;;;;;;25.67;24.67;;;;;;;;6183572;23;45143;-70
2023/09/26 21:17:30;;;;;;;;;22.67;21.67;;;;;;;;6185280;23;45218;-71
2023/09/26 21:19:55;;;;;;;;;25.00;21.33;;;;;;;;6184720;23;45238;-70
2023/09/26 21:22:21;;;;;;;;;23.33;20.67;;;;;;;;6184920;23;45280;-72
2023/09/26 21:24:46;;;;;;;;;25.00;22.00;;;;;;;;6185042;23;45262;-71
2023/09/26 21:27:11;;;;;;;;;20.33;19.00;;;;;;;;6185218;23;45435;-70
2023/09/26 21:29:36;;;;;;;;;22.67;21.33;;;;;;;;6184165;23;45261;-71
2023/09/26 21:32:01;;;;;;;;;16.67;16.67;;;;;;;;6183895;23;47905;-70
2023/09/26 21:34:27;;;;;;;;;19.33;17.67;;;;;;;;6186021;23;45393;-71
2023/09/26 21:36:52;;;;;;;;;20.00;18.00;;;;;;;;6186357;23;45478;-71
2023/09/26 21:39:17;;;;;;;;;22.00;21.00;;;;;;;;6186111;23;44753;-71
2023/09/26 21:41:42;;;;;;;;;19.33;17.67;;;;;;;;6186207;23;45270;-71
2023/09/26 21:44:07;;;;;;;;;22.33;18.67;;;;;;;;6185933;23;45355;-71
2023/09/26 21:46:33;;;;;;;;;19.00;16.00;;;;;;;;6186343;23;45252;-70
2023/09/26 21:48:58;;;;;;;;;20.00;17.00;;;;;;;;6185713;23;45285;-70
2023/09/26 21:51:23;;;;;;;;;17.33;16.33;;;;;;;;6186239;23;45896;-70
2023/09/26 21:53:48;;;;;;;;;20.00;17.67;;;;;;;;6158904;23;45290;-71
2023/09/26 21:56:13;;;;;;;;;19.67;17.67;;;;;;;;6186413;23;45236;-71
2023/09/26 21:58:39;;;;;;;;;21.00;17.00;;;;;;;;6185693;23;45514;-71
2023/09/26 22:01:04;;;;;;;;;20.33;15.67;;;;;;;;6186109;23;45451;-70
2023/09/26 22:03:29;;;;;;;;;17.00;15.00;;;;;;;;6186265;23;45221;-70
2023/09/26 22:05:54;;;;;;;;;15.67;13.33;;;;;;;;6184809;23;45241;-71
2023/09/26 22:08:20;;;;;;;;;15.33;15.33;;;;;;;;6184066;23;45202;-71
2023/09/26 22:10:45;;;;;;;;;16.33;16.33;;;;;;;;6185659;23;45242;-71
2023/09/26 22:13:10;;;;;;;;;14.00;14.00;;;;;;;;6186298;23;45248;-71
2023/09/26 22:15:35;;;;;;;;;16.33;13.33;;;;;;;;6185079;23;45274;-70
2023/09/26 22:18:01;;;;;;;;;11.00;10.00;;;;;;;;6186269;23;45282;-70
2023/09/26 22:20:32;;;;;;;;;16.67;13.67;;;;;;;;6185513;23;45325;-70
2023/09/26 22:22:57;;;;;;;;;17.00;13.33;;;;;;;;6185778;23;45270;-70
2023/09/26 22:25:22;;;;;;;;;12.00;12.00;;;;;;;;6185887;23;45253;-70
2023/09/26 22:27:48;;;;;;;;;14.00;9.67;;;;;;;;6186275;23;45261;-70
2023/09/26 22:30:13;;;;;;;;;13.67;12.00;;;;;;;;6184750;23;46376;-70
2023/09/26 22:32:39;;;;;;;;;14.67;13.33;;;;;;;;6186290;23;45254;-70
2023/09/26 22:35:04;;;;;;;;;13.33;11.00;;;;;;;;6185846;23;45126;-70
2023/09/26 22:37:29;;;;;;;;;12.33;11.67;;;;;;;;6159303;23;46016;-70
2023/09/26 22:39:55;;;;;;;;;12.67;12.67;;;;;;;;6185835;23;45380;-70
2023/09/26 22:42:20;;;;;;;;;14.00;13.00;;;;;;;;6186253;23;45266;-71
2023/09/26 22:44:46;;;;;;;;;12.33;12.33;;;;;;;;6185930;23;44667;-70
2023/09/26 22:47:14;;;;;;;;;18.33;16.00;;;;;;;;6184622;23;45539;-71
2023/09/26 22:49:39;;;;;;;;;15.00;15.00;;;;;;;;6185631;23;45641;-70
2023/09/26 22:52:05;;;;;;;;;14.00;14.00;;;;;;;;6185834;23;45356;-71
2023/09/26 22:54:32;;;;;;;;;15.33;13.33;;;;;;;;6185754;23;45305;-71
2023/09/26 22:56:57;;;;;;;;;12.00;10.33;;;;;;;;6184035;23;46170;-70
2023/09/26 22:59:23;;;;;;;;;14.33;13.00;;;;;;;;6185310;23;45536;-71
2023/09/26 23:01:48;;;;;;;;;15.00;11.67;;;;;;;;6186073;23;45246;-71
2023/09/26 23:04:13;;;;;;;;;15.67;11.33;;;;;;;;6186188;23;45266;-72
2023/09/26 23:06:38;;;;;;;;;15.33;12.33;;;;;;;;6186195;23;45547;-71
2023/09/26 23:09:04;;;;;;;;;15.00;12.67;;;;;;;;6185525;23;46221;-70
2023/09/26 23:11:29;;;;;;;;;17.67;15.00;;;;;;;;6186092;23;45261;-70
2023/09/26 23:13:54;;;;;;;;;20.00;14.67;;;;;;;;6185631;23;45426;-70
2023/09/26 23:16:19;;;;;;;;;13.67;12.00;;;;;;;;6185244;23;45321;-70
2023/09/26 23:18:48;;;;;;;;;13.33;13.33;;;;;;;;6185624;23;45218;-70
2023/09/26 23:21:14;;;;;;;;;19.67;16.00;;;;;;;;6185918;23;45167;-70
2023/09/26 23:23:40;;;;;;;;;17.33;14.67;;;;;;;;6182932;23;45279;-70
2023/09/26 23:26:05;;;;;;;;;17.67;12.67;;;;;;;;6183603;23;46855;-70
2023/09/26 23:28:30;;;;;;;;;18.33;14.67;;;;;;;;6158454;23;47371;-70
2023/09/26 23:30:56;;;;;;;;;12.67;11.67;;;;;;;;6185923;23;45217;-70